Time;durP1;ratioP1;P1;durP2;ratioP2;P2;SDS_P1;SDS_P2;PMS_P1;PMS_P2;Temp;Humidity;BMP_temperature;BMP_pressure;BME280_temperature;BME280_humidity;BME280_pressure;Samples;Min_cycle;Max_cycle;Signal;HPM_P1;HPM_P2
2023/09/12 00:01:10;;;;;;;46.30;31.45;;;19.60;99.90;;;;;;4754474;30;20062;-71
2023/09/12 00:03:36;;;;;;;47.83;30.92;;;19.50;99.90;;;;;;4754364;30;20101;-71
2023/09/12 00:06:04;;;;;;;45.65;31.77;;;19.50;99.90;;;;;;4770224;30;20113;-71
2023/09/12 00:08:29;;;;;;;46.30;30.83;;;19.50;99.90;;;;;;4754235;30;20059;-71
2023/09/12 00:11:13;;;;;;;45.50;30.25;;;19.50;99.90;;;;;;4754263;30;20047;-71
2023/09/12 00:13:40;;;;;;;42.53;29.67;;;19.50;99.90;;;;;;4756327;30;20087;-71
2023/09/12 00:16:06;;;;;;;39.42;28.77;;;19.50;99.90;;;;;;4757532;30;20510;-71
2023/09/12 00:18:34;;;;;;;46.78;30.00;;;19.50;99.90;;;;;;4757563;30;20051;-71
2023/09/12 00:21:00;;;;;;;42.22;28.90;;;19.40;99.90;;;;;;4757578;30;20117;-71
2023/09/12 00:23:26;;;;;;;40.45;29.40;;;19.40;99.90;;;;;;4757342;30;20048;-71
2023/09/12 00:25:52;;;;;;;43.53;29.65;;;19.30;99.90;;;;;;4773549;30;20096;-71
2023/09/12 00:28:18;;;;;;;46.45;29.98;;;19.30;99.90;;;;;;4773277;30;20079;-72
2023/09/12 00:30:44;;;;;;;41.80;29.38;;;19.40;99.90;;;;;;4773272;30;20052;-72
2023/09/12 00:33:10;;;;;;;47.15;30.73;;;19.40;99.90;;;;;;4773427;30;20048;-72
2023/09/12 00:35:35;;;;;;;43.42;30.02;;;19.40;99.90;;;;;;4772924;30;20501;-71
2023/09/12 00:38:03;;;;;;;50.17;29.23;;;19.30;99.90;;;;;;4757094;30;20409;-72
2023/09/12 00:40:29;;;;;;;46.53;32.08;;;19.30;99.90;;;;;;4757319;30;20063;-72
2023/09/12 00:42:55;;;;;;;44.35;30.50;;;19.30;99.90;;;;;;4773177;30;20058;-72
2023/09/12 00:45:20;;;;;;;46.17;30.88;;;19.30;99.90;;;;;;4773122;30;20463;-72
2023/09/12 00:47:47;;;;;;;50.47;33.35;;;19.20;99.90;;;;;;4757115;30;20549;-72
2023/09/12 00:50:14;;;;;;;42.10;30.10;;;19.20;99.90;;;;;;4757128;30;20070;-72
2023/09/12 00:52:41;;;;;;;45.88;32.20;;;19.20;99.90;;;;;;4757099;30;20484;-72
2023/09/12 00:55:08;;;;;;;50.97;31.85;;;19.20;99.90;;;;;;4756713;30;20135;-72
2023/09/12 00:57:34;;;;;;;50.13;31.20;;;19.20;99.90;;;;;;4757077;30;20048;-72
2023/09/12 01:00:10;;;;;;;54.35;34.80;;;19.20;99.90;;;;;;4757124;30;20070;-72
2023/09/12 01:02:46;;;;;;;51.40;34.22;;;19.20;99.90;;;;;;4772845;30;20047;-73
2023/09/12 01:05:14;;;;;;;54.85;33.72;;;19.20;99.90;;;;;;4756722;30;20050;-72
2023/09/12 01:07:41;;;;;;;49.80;34.70;;;19.20;99.90;;;;;;4772827;30;20051;-72
2023/09/12 01:10:07;;;;;;;52.33;33.50;;;19.20;99.90;;;;;;4756625;30;20405;-72
2023/09/12 01:12:33;;;;;;;55.42;35.78;;;19.10;99.90;;;;;;4756626;30;20052;-72
2023/09/12 01:14:59;;;;;;;50.88;34.03;;;19.10;99.90;;;;;;4756629;30;20105;-72
2023/09/12 01:17:26;;;;;;;53.72;34.95;;;19.10;99.90;;;;;;4772341;30;20135;-72
2023/09/12 01:19:52;;;;;;;52.42;33.90;;;19.10;99.90;;;;;;4756446;30;20123;-72
2023/09/12 01:22:32;;;;;;;47.83;32.72;;;19.10;99.90;;;;;;4756428;30;20047;-72
2023/09/12 01:25:07;;;;;;;59.00;36.08;;;19.10;99.90;;;;;;4756385;30;20112;-72
2023/09/12 01:27:37;;;;;;;55.00;35.88;;;19.10;99.90;;;;;;4772465;30;20105;-72
2023/09/12 01:30:06;;;;;;;49.83;32.83;;;19.00;99.90;;;;;;4756659;30;20131;-72
2023/09/12 01:32:33;;;;;;;52.08;33.60;;;19.10;99.90;;;;;;4772390;30;20139;-72
2023/09/12 01:34:59;;;;;;;52.30;33.42;;;19.00;99.90;;;;;;4744404;30;20060;-72
2023/09/12 01:37:26;;;;;;;52.25;34.05;;;19.10;99.90;;;;;;4738764;30;20060;-72
2023/09/12 01:39:52;;;;;;;48.28;32.55;;;19.10;99.90;;;;;;4754506;30;20060;-72
2023/09/12 01:42:22;;;;;;;56.83;34.65;;;19.00;99.90;;;;;;4754304;30;20401;-72
2023/09/12 01:44:52;;;;;;;49.50;32.60;;;19.00;99.90;;;;;;4738591;30;20105;-72
2023/09/12 01:47:20;;;;;;;52.53;33.88;;;19.00;99.90;;;;;;4754335;30;20095;-72
2023/09/12 01:49:48;;;;;;;49.92;32.58;;;19.00;99.90;;;;;;4738552;30;20059;-72
2023/09/12 01:52:15;;;;;;;51.03;32.22;;;18.90;99.90;;;;;;4754276;30;20048;-72
2023/09/12 01:54:42;;;;;;;48.03;32.60;;;19.00;99.90;;;;;;4738523;30;20477;-72
2023/09/12 01:57:08;;;;;;;45.55;31.40;;;18.90;99.90;;;;;;4753954;30;20114;-72
2023/09/12 01:59:34;;;;;;;49.22;32.30;;;18.90;99.90;;;;;;4738077;30;20062;-72
2023/09/12 02:02:00;;;;;;;46.67;31.13;;;18.90;99.90;;;;;;4738122;30;20052;-72
2023/09/12 02:04:26;;;;;;;46.78;29.63;;;18.80;99.90;;;;;;4737991;30;20052;-72
2023/09/12 02:06:51;;;;;;;46.35;31.70;;;18.90;99.90;;;;;;4738282;30;20064;-72
2023/09/12 02:09:17;;;;;;;46.00;30.25;;;18.80;99.90;;;;;;4738036;30;20485;-72
2023/09/12 02:11:42;;;;;;;47.25;31.23;;;18.80;99.90;;;;;;4753970;30;20059;-72
2023/09/12 02:14:08;;;;;;;44.53;30.67;;;18.70;99.90;;;;;;4738146;30;20052;-72
2023/09/12 02:16:37;;;;;;;44.78;31.08;;;18.70;99.90;;;;;;4753736;30;20098;-72
2023/09/12 02:19:03;;;;;;;43.22;29.30;;;18.70;99.90;;;;;;4753798;30;20052;-72
2023/09/12 02:21:29;;;;;;;41.53;28.33;;;18.60;99.90;;;;;;4738153;30;20062;-72
2023/09/12 02:23:55;;;;;;;49.97;32.15;;;18.60;99.90;;;;;;4737809;30;20063;-72
2023/09/12 02:26:20;;;;;;;45.88;30.40;;;18.70;99.90;;;;;;4737646;30;20048;-72
2023/09/12 02:28:46;;;;;;;45.92;31.33;;;18.60;99.90;;;;;;4737671;30;20056;-72
2023/09/12 02:31:12;;;;;;;46.53;30.27;;;18.60;99.90;;;;;;4753634;30;20048;-72
2023/09/12 02:33:38;;;;;;;43.17;29.13;;;18.60;99.90;;;;;;4737612;30;20053;-72
2023/09/12 02:36:05;;;;;;;40.95;27.75;;;18.50;99.90;;;;;;4736888;30;20110;-72
2023/09/12 02:38:30;;;;;;;40.42;27.15;;;18.50;99.90;;;;;;4737587;30;20102;-72
2023/09/12 02:40:56;;;;;;;43.25;29.13;;;18.40;99.90;;;;;;4737361;30;20051;-72
2023/09/12 02:43:22;;;;;;;46.35;31.58;;;18.40;99.90;;;;;;4737466;30;20060;-72
2023/09/12 02:45:47;;;;;;;42.72;29.40;;;18.40;99.90;;;;;;4737418;30;20056;-72
2023/09/12 02:48:13;;;;;;;44.92;30.05;;;18.40;99.90;;;;;;4737740;30;20078;-72
2023/09/12 02:50:38;;;;;;;47.83;30.17;;;18.40;99.90;;;;;;4753285;30;20567;-72
2023/09/12 02:53:04;;;;;;;48.58;31.02;;;18.40;99.90;;;;;;4737161;30;20059;-72
2023/09/12 02:55:30;;;;;;;52.28;32.40;;;18.40;99.90;;;;;;4737321;30;20152;-72
2023/09/12 02:57:55;;;;;;;49.47;33.00;;;18.40;99.90;;;;;;4737471;30;20559;-72
2023/09/12 03:00:21;;;;;;;57.60;35.35;;;18.40;99.90;;;;;;4753004;30;20133;-72
2023/09/12 03:02:47;;;;;;;57.17;33.08;;;18.50;99.90;;;;;;4752911;30;20048;-72
2023/09/12 03:05:13;;;;;;;51.58;31.63;;;18.50;99.90;;;;;;4737465;30;20086;-72
2023/09/12 03:07:38;;;;;;;54.38;34.90;;;18.40;99.90;;;;;;4737132;30;20052;-72
2023/09/12 03:10:04;;;;;;;54.10;33.00;;;18.40;99.90;;;;;;4737320;30;20069;-72
2023/09/12 03:12:30;;;;;;;57.30;33.72;;;18.40;99.90;;;;;;4737284;30;20040;-72
2023/09/12 03:14:56;;;;;;;56.10;33.13;;;18.40;99.90;;;;;;4737222;30;20397;-72
2023/09/12 03:17:22;;;;;;;49.63;33.28;;;18.40;99.90;;;;;;4737290;30;20460;-72
2023/09/12 03:19:48;;;;;;;56.50;33.85;;;18.40;99.90;;;;;;4737273;30;20047;-72
2023/09/12 03:22:13;;;;;;;50.67;32.65;;;18.30;99.90;;;;;;4737106;30;20060;-72
2023/09/12 03:24:39;;;;;;;53.65;33.80;;;18.30;99.90;;;;;;4752945;30;20092;-72
2023/09/12 03:27:05;;;;;;;55.65;34.63;;;18.30;99.90;;;;;;4752696;30;20045;-72
2023/09/12 03:29:30;;;;;;;56.85;35.53;;;18.30;99.90;;;;;;4736971;30;20063;-72
2023/09/12 03:31:56;;;;;;;55.38;34.33;;;18.30;99.90;;;;;;4737203;30;20052;-72
2023/09/12 03:34:22;;;;;;;59.42;34.08;;;18.30;99.90;;;;;;4736761;30;20127;-72
2023/09/12 03:36:49;;;;;;;55.63;34.08;;;18.20;99.90;;;;;;4736847;30;20056;-72
2023/09/12 03:39:15;;;;;;;60.25;35.20;;;18.20;99.90;;;;;;4736986;30;20056;-72
2023/09/12 03:41:41;;;;;;;53.85;32.22;;;18.20;99.90;;;;;;4752819;30;20044;-72
2023/09/12 03:44:06;;;;;;;57.33;34.42;;;18.20;99.90;;;;;;4752794;30;20048;-72
2023/09/12 03:46:34;;;;;;;56.25;34.40;;;18.20;99.90;;;;;;4737582;30;20521;-72
2023/09/12 03:49:00;;;;;;;60.08;34.80;;;18.20;99.90;;;;;;4740670;30;20052;-73
2023/09/12 03:51:26;;;;;;;58.22;35.08;;;18.20;99.90;;;;;;4740431;30;20048;-72
2023/09/12 03:53:51;;;;;;;58.55;35.10;;;18.20;99.90;;;;;;4756773;30;20127;-72
2023/09/12 03:56:19;;;;;;;52.63;34.38;;;18.20;99.90;;;;;;4756046;30;20056;-72
2023/09/12 03:58:45;;;;;;;57.88;33.92;;;18.10;99.90;;;;;;4756329;30;20048;-72
2023/09/12 04:01:11;;;;;;;55.92;34.33;;;18.20;99.90;;;;;;4740528;30;20134;-73
2023/09/12 04:03:36;;;;;;;59.08;34.25;;;18.10;99.90;;;;;;4740542;30;20056;-72
2023/09/12 04:06:02;;;;;;;81.60;35.47;;;18.10;99.90;;;;;;4740498;30;20056;-72
2023/09/12 04:08:28;;;;;;;46.35;31.52;;;18.10;99.90;;;;;;4739995;30;20398;-72
2023/09/12 04:10:53;;;;;;;46.92;31.75;;;18.10;99.90;;;;;;4739998;30;20135;-72
2023/09/12 04:13:20;;;;;;;49.05;31.70;;;18.10;99.90;;;;;;4756046;30;20036;-72
2023/09/12 04:15:45;;;;;;;56.95;34.85;;;18.00;99.90;;;;;;4739942;30;20059;-72
2023/09/12 04:18:11;;;;;;;55.30;33.65;;;18.00;99.90;;;;;;4740276;30;20049;-72
2023/09/12 04:20:36;;;;;;;78.90;34.42;;;18.00;99.90;;;;;;4755740;30;20450;-72
2023/09/12 04:23:03;;;;;;;53.05;30.85;;;18.00;99.90;;;;;;4755858;30;20052;-72
2023/09/12 04:25:29;;;;;;;44.17;29.58;;;18.00;99.90;;;;;;4740053;30;20566;-72
2023/09/12 04:27:55;;;;;;;72.95;32.88;;;17.90;99.90;;;;;;4755774;30;20048;-72
2023/09/12 04:30:21;;;;;;;53.75;30.13;;;17.90;99.90;;;;;;4739937;30;20386;-72
2023/09/12 04:32:46;;;;;;;46.15;27.90;;;17.90;99.90;;;;;;4739730;30;20405;-72
2023/09/12 04:35:12;;;;;;;48.22;30.15;;;17.90;99.90;;;;;;4739449;30;20071;-72
2023/09/12 04:37:38;;;;;;;50.70;29.80;;;17.80;99.90;;;;;;4755886;30;20463;-72
2023/09/12 04:40:05;;;;;;;49.78;29.50;;;17.80;99.90;;;;;;4739534;30;20065;-72
2023/09/12 04:42:31;;;;;;;45.35;28.50;;;17.80;99.90;;;;;;4739793;30;20052;-72
2023/09/12 04:44:57;;;;;;;41.85;27.70;;;17.80;99.90;;;;;;4739560;30;20393;-72
2023/09/12 04:47:23;;;;;;;64.03;29.15;;;17.80;99.90;;;;;;4739550;30;20110;-72
2023/09/12 04:49:49;;;;;;;39.35;26.85;;;17.80;99.90;;;;;;4739692;30;20156;-72
2023/09/12 04:52:14;;;;;;;39.75;27.13;;;17.80;99.90;;;;;;4739315;30;20524;-72
2023/09/12 04:54:43;;;;;;;58.90;27.65;;;17.80;99.90;;;;;;4755353;30;20055;-72
2023/09/12 04:57:08;;;;;;;54.25;27.77;;;17.70;99.90;;;;;;4755132;30;20048;-72
2023/09/12 04:59:34;;;;;;;47.15;28.52;;;17.80;99.90;;;;;;4738930;30;20118;-72
2023/09/12 05:02:00;;;;;;;57.47;29.60;;;17.70;99.90;;;;;;4754941;30;20052;-72
2023/09/12 05:04:26;;;;;;;42.45;29.27;;;17.70;99.90;;;;;;4739162;30;20060;-72
2023/09/12 05:06:51;;;;;;;68.80;29.95;;;17.70;99.90;;;;;;4739012;30;20087;-72
2023/09/12 05:09:17;;;;;;;76.65;29.13;;;17.70;99.90;;;;;;4739236;30;20054;-72
2023/09/12 05:11:44;;;;;;;54.50;28.73;;;17.60;99.90;;;;;;4739088;30;20532;-72
2023/09/12 05:14:09;;;;;;;51.70;28.00;;;17.70;99.90;;;;;;4738135;30;20060;-73
2023/09/12 05:16:35;;;;;;;46.75;27.80;;;17.60;99.90;;;;;;4754719;30;20044;-72
2023/09/12 05:19:01;;;;;;;91.55;31.15;;;17.60;99.90;;;;;;4738661;30;20048;-72
2023/09/12 05:21:26;;;;;;;100.85;32.65;;;17.60;99.90;;;;;;4738712;30;20073;-72
2023/09/12 05:23:52;;;;;;;68.40;29.35;;;17.60;99.90;;;;;;4738810;30;20059;-72
2023/09/12 05:26:18;;;;;;;47.33;28.58;;;17.50;99.90;;;;;;4754635;30;20138;-72
2023/09/12 05:28:44;;;;;;;46.42;30.55;;;17.50;99.90;;;;;;4754620;30;20135;-72
2023/09/12 05:31:09;;;;;;;47.08;29.05;;;17.50;99.90;;;;;;4754613;30;20059;-71
2023/09/12 05:33:35;;;;;;;66.35;32.13;;;17.60;99.90;;;;;;4738732;30;20134;-72
2023/09/12 05:36:02;;;;;;;52.97;32.80;;;17.60;99.90;;;;;;4738288;30;20121;-72
2023/09/12 05:38:28;;;;;;;51.85;30.92;;;17.60;99.90;;;;;;4738260;30;20414;-72
2023/09/12 05:40:54;;;;;;;51.80;31.30;;;17.60;99.90;;;;;;4738513;30;20060;-72
2023/09/12 05:43:20;;;;;;;61.13;33.72;;;17.50;99.90;;;;;;4738425;30;20083;-72
2023/09/12 05:45:45;;;;;;;54.95;33.70;;;17.60;99.90;;;;;;4738411;30;20059;-72
2023/09/12 05:48:11;;;;;;;69.43;38.15;;;17.60;99.90;;;;;;4738481;30;20063;-72
2023/09/12 05:50:37;;;;;;;66.03;36.42;;;17.60;99.90;;;;;;4738272;30;20052;-71
2023/09/12 05:53:03;;;;;;;70.05;37.40;;;17.60;99.90;;;;;;4754109;30;20060;-72
2023/09/12 05:55:28;;;;;;;75.40;38.88;;;17.60;99.90;;;;;;4738335;30;20059;-72
2023/09/12 05:57:54;;;;;;;90.93;42.78;;;17.60;99.90;;;;;;4754104;30;20394;-72
2023/09/12 06:00:20;;;;;;;79.00;41.65;;;17.70;99.90;;;;;;4738235;30;20060;-72
2023/09/12 06:02:47;;;;;;;85.72;42.13;;;17.70;99.90;;;;;;4753841;30;20524;-72
2023/09/12 06:05:13;;;;;;;89.30;41.50;;;17.60;99.90;;;;;;4737871;30;20060;-71
2023/09/12 06:07:40;;;;;;;80.88;41.75;;;17.70;99.90;;;;;;4753989;30;20068;-71
2023/09/12 06:10:07;;;;;;;92.80;42.88;;;17.70;99.90;;;;;;4753123;30;20083;-71
2023/09/12 06:12:35;;;;;;;81.80;41.63;;;17.70;99.90;;;;;;4737852;30;20060;-71
2023/09/12 06:15:02;;;;;;;89.10;43.28;;;17.70;99.90;;;;;;4731968;30;20127;-70
2023/09/12 06:17:27;;;;;;;92.28;44.42;;;17.80;99.90;;;;;;4727988;30;20056;-70
2023/09/12 06:19:55;;;;;;;88.82;44.10;;;17.80;99.90;;;;;;4720383;30;20056;-74
2023/09/12 06:22:22;;;;;;;95.38;42.58;;;17.80;99.90;;;;;;4720360;30;20061;-71
2023/09/12 06:24:49;;;;;;;96.45;44.20;;;17.80;99.90;;;;;;4735819;30;20073;-70
2023/09/12 06:27:21;;;;;;;105.80;44.97;;;17.90;99.90;;;;;;4719987;30;20057;-71
2023/09/12 06:29:48;;;;;;;97.45;43.97;;;17.90;99.90;;;;;;4720043;30;20528;-71
2023/09/12 06:32:24;;;;;;;88.60;43.47;;;17.90;99.90;;;;;;5173125;27;20404;-71
2023/09/12 06:34:49;;;;;;;109.65;45.70;;;17.90;99.90;;;;;;5173346;27;20042;-71
2023/09/12 06:37:15;;;;;;;100.25;45.15;;;18.00;99.90;;;;;;5154376;27;20125;-71
2023/09/12 06:39:41;;;;;;;97.00;44.35;;;18.00;99.90;;;;;;5154790;27;20042;-71
2023/09/12 06:42:07;;;;;;;89.20;42.80;;;18.10;99.90;;;;;;5154285;27;20046;-71
2023/09/12 06:44:33;;;;;;;87.43;43.00;;;18.00;99.90;;;;;;5154210;27;20042;-71
2023/09/12 06:46:59;;;;;;;104.43;42.25;;;18.10;99.90;;;;;;5172959;27;20087;-71
2023/09/12 06:49:24;;;;;;;111.93;47.28;;;18.10;99.90;;;;;;5154559;27;20074;-71
2023/09/12 06:51:50;;;;;;;85.88;43.67;;;18.10;99.90;;;;;;5154062;27;20050;-71
2023/09/12 06:54:16;;;;;;;91.28;44.58;;;18.10;99.90;;;;;;5154200;27;20046;-71
2023/09/12 06:56:42;;;;;;;102.28;44.42;;;18.10;99.90;;;;;;5172786;27;20130;-71
2023/09/12 06:59:08;;;;;;;105.53;45.42;;;18.20;99.90;;;;;;5172622;27;20062;-71
2023/09/12 07:01:34;;;;;;;104.88;45.88;;;18.20;99.90;;;;;;5154206;27;20030;-71
2023/09/12 07:04:00;;;;;;;106.82;45.20;;;18.20;99.90;;;;;;5153961;27;20485;-71
2023/09/12 07:06:25;;;;;;;99.30;43.70;;;18.20;99.90;;;;;;5172838;27;20042;-71
2023/09/12 07:08:51;;;;;;;95.95;43.38;;;18.10;99.90;;;;;;5153861;27;20055;-71
2023/09/12 07:11:19;;;;;;;91.63;42.95;;;18.10;99.90;;;;;;5172350;27;20043;-71
2023/09/12 07:13:45;;;;;;;94.65;43.00;;;18.20;99.90;;;;;;5153937;27;20074;-70
2023/09/12 07:16:10;;;;;;;103.40;43.38;;;18.30;99.90;;;;;;5153622;27;20069;-70
2023/09/12 07:18:36;;;;;;;96.57;45.80;;;18.30;99.90;;;;;;5172518;27;20038;-71
2023/09/12 07:21:04;;;;;;;97.57;44.55;;;18.20;99.90;;;;;;5153712;27;20375;-70
2023/09/12 07:23:30;;;;;;;85.72;41.70;;;18.20;99.90;;;;;;5153525;27;20438;-71
2023/09/12 07:25:59;;;;;;;101.13;45.92;;;18.20;99.90;;;;;;5153821;27;20555;-71
2023/09/12 07:28:30;;;;;;;92.30;44.47;;;18.20;99.90;;;;;;5153702;27;20069;-71
2023/09/12 07:30:56;;;;;;;94.05;44.50;;;18.30;99.90;;;;;;5153258;27;20089;-71
2023/09/12 07:33:22;;;;;;;98.68;45.30;;;18.40;99.90;;;;;;5171880;27;20042;-71
2023/09/12 07:35:51;;;;;;;92.38;43.00;;;18.40;99.90;;;;;;5172305;27;20045;-72
2023/09/12 07:38:19;;;;;;;95.22;45.63;;;18.40;99.90;;;;;;5171873;27;20099;-72
2023/09/12 07:40:45;;;;;;;94.88;43.13;;;18.50;99.90;;;;;;5153120;27;20057;-71
2023/09/12 07:43:11;;;;;;;100.10;46.25;;;18.50;99.90;;;;;;5142608;27;20038;-70
2023/09/12 07:45:37;;;;;;;90.68;43.58;;;18.60;99.90;;;;;;5139589;27;20053;-71
2023/09/12 07:48:08;;;;;;;90.45;44.38;;;18.60;99.90;;;;;;5139285;27;20508;-71
2023/09/12 07:50:34;;;;;;;77.82;41.03;;;18.70;99.90;;;;;;5139415;27;20130;-71
2023/09/12 07:53:00;;;;;;;97.85;44.05;;;18.80;99.90;;;;;;5139088;27;20497;-71
2023/09/12 07:55:30;;;;;;;91.40;42.42;;;18.80;99.90;;;;;;5139507;27;20869;-72
2023/09/12 07:57:55;;;;;;;94.38;43.78;;;18.80;99.90;;;;;;5139157;27;20042;-72
2023/09/12 08:00:21;;;;;;;90.60;44.17;;;18.90;99.90;;;;;;5157672;27;20055;-71
2023/09/12 08:02:47;;;;;;;90.10;43.25;;;18.90;99.90;;;;;;5157472;27;20051;-71
2023/09/12 08:05:12;;;;;;;92.35;43.33;;;18.90;99.90;;;;;;5157491;27;20482;-70
2023/09/12 08:07:38;;;;;;;88.97;43.78;;;18.90;99.90;;;;;;5157743;27;20172;-71
2023/09/12 08:10:04;;;;;;;88.93;42.78;;;19.00;99.90;;;;;;5138870;27;20389;-71
2023/09/12 08:12:30;;;;;;;89.75;42.58;;;18.90;99.90;;;;;;5157641;27;20039;-71
2023/09/12 08:14:56;;;;;;;99.57;43.65;;;19.00;99.90;;;;;;5157268;27;20053;-73
2023/09/12 08:17:23;;;;;;;90.05;43.80;;;19.10;99.90;;;;;;5138901;27;20050;-79
2023/09/12 08:19:48;;;;;;;88.70;44.95;;;19.20;99.90;;;;;;5139167;27;20064;-72
2023/09/12 08:22:14;;;;;;;89.05;43.88;;;19.20;99.90;;;;;;5157598;27;20034;-72
2023/09/12 08:24:40;;;;;;;78.45;39.17;;;19.20;99.90;;;;;;5157540;27;20077;-72
2023/09/12 08:27:06;;;;;;;84.20;41.83;;;19.20;99.90;;;;;;5138793;27;20074;-72
2023/09/12 08:29:33;;;;;;;86.25;42.50;;;19.20;99.90;;;;;;5138644;27;20049;-72
2023/09/12 08:31:59;;;;;;;88.25;43.63;;;19.30;99.90;;;;;;5156879;27;20046;-71
2023/09/12 08:34:25;;;;;;;84.38;43.15;;;19.20;99.90;;;;;;5138407;27;20396;-72
2023/09/12 08:36:51;;;;;;;80.60;41.05;;;19.30;99.90;;;;;;5138633;27;20461;-71
2023/09/12 08:39:24;;;;;;;84.40;42.30;;;19.20;99.90;;;;;;5138464;27;20122;-72
2023/09/12 08:41:50;;;;;;;79.38;41.05;;;19.30;99.90;;;;;;5156923;27;20401;-71
2023/09/12 08:44:16;;;;;;;86.47;43.08;;;19.40;99.90;;;;;;5138596;27;20050;-72
2023/09/12 08:46:42;;;;;;;88.63;45.17;;;19.40;99.90;;;;;;5157048;27;20042;-72
2023/09/12 08:49:09;;;;;;;86.03;43.30;;;19.40;99.90;;;;;;5138377;27;20046;-71
2023/09/12 08:51:41;;;;;;;82.75;43.20;;;19.40;99.90;;;;;;5156695;27;20042;-71
2023/09/12 08:54:07;;;;;;;90.60;44.53;;;19.50;99.90;;;;;;5155691;27;20038;-72
2023/09/12 08:56:36;;;;;;;83.97;42.67;;;19.60;99.90;;;;;;5156894;27;20041;-72
2023/09/12 08:59:04;;;;;;;84.53;43.83;;;19.70;99.90;;;;;;5138082;27;20074;-72
2023/09/12 09:01:33;;;;;;;88.88;43.38;;;19.80;99.90;;;;;;5156797;27;20038;-72
2023/09/12 09:04:02;;;;;;;83.63;40.80;;;19.90;99.90;;;;;;5156502;27;20042;-72
2023/09/12 09:06:31;;;;;;;78.32;41.40;;;20.10;99.90;;;;;;5138254;27;20051;-72
2023/09/12 09:08:58;;;;;;;75.70;39.92;;;20.10;99.90;;;;;;5137832;27;20039;-72
2023/09/12 09:11:27;;;;;;;80.97;40.50;;;20.10;99.90;;;;;;5137815;27;20043;-72
2023/09/12 09:13:54;;;;;;;71.93;40.30;;;20.20;99.90;;;;;;5137738;27;20046;-71
2023/09/12 09:16:21;;;;;;;69.97;39.15;;;20.20;99.90;;;;;;5156162;27;20047;-71
2023/09/12 09:19:09;;;;;;;68.35;39.38;;;20.10;99.90;;;;;;5156314;27;20039;-72
2023/09/12 09:21:35;;;;;;;70.78;40.17;;;20.20;99.90;;;;;;5156084;27;20062;-72
2023/09/12 09:24:09;;;;;;;71.80;40.08;;;20.30;99.90;;;;;;5156291;27;20034;-72
2023/09/12 09:26:45;;;;;;;67.45;39.67;;;20.30;99.90;;;;;;5137503;27;20055;-72
2023/09/12 09:29:15;;;;;;;67.55;40.13;;;20.40;99.90;;;;;;5137600;27;20035;-72
2023/09/12 09:31:42;;;;;;;65.65;38.95;;;20.50;99.90;;;;;;5155587;27;20138;-71
2023/09/12 09:34:21;;;;;;;61.08;38.45;;;20.50;99.90;;;;;;5137325;27;20052;-72
2023/09/12 09:36:56;;;;;;;57.45;35.15;;;20.70;99.90;;;;;;5137399;27;20042;-72
2023/09/12 09:39:28;;;;;;;56.08;35.65;;;20.80;99.90;;;;;;5137695;27;20075;-72
2023/09/12 09:41:56;;;;;;;56.92;33.65;;;20.80;99.90;;;;;;5137512;27;20051;-72
2023/09/12 09:44:25;;;;;;;57.10;34.15;;;20.90;99.90;;;;;;5137106;27;20130;-72
2023/09/12 09:46:55;;;;;;;53.40;33.72;;;21.10;99.90;;;;;;5137083;27;20053;-72
2023/09/12 09:49:21;;;;;;;49.58;31.80;;;21.20;99.90;;;;;;5137078;27;20077;-72
2023/09/12 09:51:47;;;;;;;44.58;30.85;;;21.30;99.90;;;;;;5137063;27;20070;-72
2023/09/12 09:54:14;;;;;;;49.13;30.15;;;21.40;99.90;;;;;;5155729;27;20083;-72
2023/09/12 09:56:52;;;;;;;39.65;28.25;;;21.50;99.90;;;;;;5136509;27;20050;-72
2023/09/12 09:59:21;;;;;;;39.80;27.92;;;21.60;99.90;;;;;;5155370;27;20478;-72
2023/09/12 10:01:49;;;;;;;47.97;28.02;;;21.80;99.90;;;;;;5137135;27;20057;-72
2023/09/12 10:04:15;;;;;;;37.78;25.88;;;21.80;99.90;;;;;;5137124;27;20050;-73
2023/09/12 10:06:45;;;;;;;32.40;21.92;;;21.90;99.90;;;;;;5136535;27;20051;-72
2023/09/12 10:09:15;;;;;;;33.63;21.75;;;22.10;99.90;;;;;;5155204;27;20564;-72
2023/09/12 10:11:43;;;;;;;34.13;21.48;;;22.20;99.90;;;;;;5155449;27;20047;-72
2023/09/12 10:14:09;;;;;;;33.65;21.73;;;22.20;99.90;;;;;;5136926;27;20095;-72
2023/09/12 10:16:38;;;;;;;33.30;21.88;;;22.20;99.90;;;;;;5155398;27;20034;-72
2023/09/12 10:19:19;;;;;;;32.72;20.70;;;22.20;99.90;;;;;;5136554;27;20038;-72
2023/09/12 10:21:53;;;;;;;23.83;15.93;;;22.20;99.90;;;;;;5155763;27;20046;-72
2023/09/12 10:24:21;;;;;;;21.38;12.65;;;22.20;99.90;;;;;;5135760;27;20055;-73
2023/09/12 10:26:50;;;;;;;18.55;10.38;;;22.20;99.90;;;;;;5136442;27;20129;-72
2023/09/12 10:29:16;;;;;;;17.40;9.32;;;22.20;99.90;;;;;;5136708;27;20065;-72
2023/09/12 10:31:45;;;;;;;17.05;9.43;;;22.10;99.90;;;;;;5154790;27;20397;-72
2023/09/12 10:34:21;;;;;;;16.30;9.05;;;22.10;99.90;;;;;;5136380;27;20053;-72
2023/09/12 10:36:48;;;;;;;20.10;12.05;;;22.00;99.90;;;;;;5155063;27;20050;-72
2023/09/12 10:39:14;;;;;;;28.55;14.52;;;21.80;99.90;;;;;;5136584;27;20043;-72
2023/09/12 10:41:41;;;;;;;27.52;15.65;;;21.70;99.90;;;;;;5136769;27;20050;-72
2023/09/12 10:44:11;;;;;;;25.80;15.13;;;21.60;99.90;;;;;;5136510;27;20054;-73
2023/09/12 10:46:39;;;;;;;23.70;14.75;;;21.60;99.90;;;;;;5136628;27;20057;-73
2023/09/12 10:49:14;;;;;;;17.98;12.15;;;21.60;99.90;;;;;;5155204;27;20050;-73
2023/09/12 10:51:41;;;;;;;21.70;12.65;;;21.50;99.90;;;;;;5136361;27;20074;-73
2023/09/12 10:54:08;;;;;;;16.92;11.43;;;21.40;99.90;;;;;;5136280;27;20398;-73
2023/09/12 10:56:34;;;;;;;16.73;12.07;;;21.40;99.90;;;;;;5136587;27;20046;-73
2023/09/12 10:59:12;;;;;;;23.90;13.85;;;21.40;99.90;;;;;;5136496;27;20039;-73
2023/09/12 11:01:40;;;;;;;14.70;12.85;;;21.50;99.90;;;;;;5136313;27;20046;-73
2023/09/12 11:04:20;;;;;;;17.52;12.07;;;21.50;99.90;;;;;;5136384;27;20055;-73
2023/09/12 11:06:50;;;;;;;20.90;12.35;;;21.50;99.90;;;;;;5154920;27;20034;-73
2023/09/12 11:09:23;;;;;;;17.35;12.10;;;21.40;99.90;;;;;;5136396;27;20509;-73
2023/09/12 11:12:02;;;;;;;18.98;12.68;;;21.50;99.90;;;;;;5136119;27;20130;-73
2023/09/12 11:14:28;;;;;;;16.90;12.90;;;21.40;99.90;;;;;;5154841;27;20039;-73
2023/09/12 11:17:06;;;;;;;17.98;12.20;;;21.40;99.90;;;;;;5136198;27;20034;-72
2023/09/12 11:19:45;;;;;;;28.25;12.15;;;21.50;99.90;;;;;;5139817;27;20042;-73
2023/09/12 11:22:27;;;;;;;12.90;11.00;;;21.40;99.90;;;;;;5139955;27;20134;-73
2023/09/12 11:24:55;;;;;;;16.20;11.13;;;21.40;99.90;;;;;;5158332;27;20047;-73
2023/09/12 11:27:25;;;;;;;14.95;11.70;;;21.50;99.90;;;;;;5139803;27;20034;-73
2023/09/12 11:29:51;;;;;;;12.52;11.23;;;21.50;99.90;;;;;;5140031;27;20050;-73
2023/09/12 11:32:30;;;;;;;17.33;12.77;;;21.50;99.90;;;;;;5158038;27;20055;-73
2023/09/12 11:34:56;;;;;;;35.00;16.80;;;21.50;99.90;;;;;;5139760;27;20393;-73
2023/09/12 11:37:24;;;;;;;15.20;11.50;;;21.60;99.90;;;;;;5139997;27;20053;-73
2023/09/12 11:39:51;;;;;;;15.10;12.65;;;21.60;99.90;;;;;;5158246;27;20058;-73
2023/09/12 11:42:16;;;;;;;16.23;12.15;;;21.70;99.90;;;;;;5139841;27;20046;-73
2023/09/12 11:44:44;;;;;;;15.35;10.68;;;21.70;99.90;;;;;;5139323;27;20039;-73
2023/09/12 11:47:10;;;;;;;14.10;11.30;;;21.70;99.90;;;;;;5158244;27;20059;-73
2023/09/12 11:49:37;;;;;;;16.52;10.43;;;21.70;99.90;;;;;;5139405;27;20126;-72
2023/09/12 11:52:07;;;;;;;14.90;11.07;;;21.80;99.90;;;;;;5139337;27;20046;-72
2023/09/12 11:54:33;;;;;;;15.93;11.63;;;21.90;99.90;;;;;;5158399;27;20055;-72
2023/09/12 11:56:59;;;;;;;13.48;10.55;;;21.80;99.90;;;;;;5139482;27;20151;-73
2023/09/12 11:59:29;;;;;;;14.57;10.23;;;21.90;99.90;;;;;;5157932;27;20125;-73
2023/09/12 12:01:55;;;;;;;13.50;10.40;;;21.90;99.90;;;;;;5157833;27;20172;-73
2023/09/12 12:04:22;;;;;;;15.10;8.30;;;21.90;99.90;;;;;;5157819;27;20500;-73
2023/09/12 12:06:50;;;;;;;10.68;6.97;;;21.80;99.90;;;;;;5139120;27;20107;-73
2023/09/12 12:09:18;;;;;;;9.52;6.80;;;21.80;99.90;;;;;;5156767;27;20118;-73
2023/09/12 12:11:44;;;;;;;9.23;7.10;;;21.80;99.90;;;;;;5139045;27;20038;-73
2023/09/12 12:14:17;;;;;;;11.52;8.50;;;21.70;99.90;;;;;;5139318;27;20065;-73
2023/09/12 12:16:44;;;;;;;10.85;9.13;;;21.70;99.90;;;;;;5138894;27;20078;-73
2023/09/12 12:19:11;;;;;;;12.27;9.20;;;21.70;99.90;;;;;;5138835;27;20043;-72
2023/09/12 12:21:41;;;;;;;14.13;9.50;;;21.60;99.90;;;;;;5138811;27;20431;-73
2023/09/12 12:24:17;;;;;;;11.50;8.82;;;21.70;99.90;;;;;;5138964;27;20043;-73
2023/09/12 12:26:43;;;;;;;11.60;7.88;;;21.70;99.90;;;;;;5139009;27;20502;-72
2023/09/12 12:29:10;;;;;;;10.52;7.38;;;21.70;99.90;;;;;;5138460;27;20103;-71